createdAt,value
2019-05-13T00:00:04.126Z,2.40
2019-05-13T00:01:07.154Z,2.30
2019-05-13T00:02:04.736Z,2.40
2019-05-13T00:03:04.083Z,2.10
2019-05-13T00:04:04.017Z,2.30
2019-05-13T00:05:04.101Z,2.30
2019-05-13T00:06:04.302Z,2.10
2019-05-13T00:07:04.739Z,2.10
2019-05-13T00:08:03.918Z,2.40
2019-05-13T00:09:03.919Z,2.50
2019-05-13T00:10:04.147Z,2.10
2019-05-13T00:11:04.443Z,2.20
2019-05-13T00:12:04.725Z,2.20
2019-05-13T00:13:04.655Z,2.30
2019-05-13T00:14:04.374Z,2.20
2019-05-13T00:15:03.866Z,2.30
2019-05-13T00:16:03.954Z,2.40
2019-05-13T00:17:04.268Z,2.10
2019-05-13T00:18:04.198Z,2.80
2019-05-13T00:19:04.147Z,2.40
2019-05-13T00:20:04.088Z,2.40
2019-05-13T00:21:03.846Z,2.20
2019-05-13T00:22:04.016Z,2.30
2019-05-13T00:23:04.127Z,2.40
2019-05-13T00:24:04.113Z,2.40
2019-05-13T00:25:04.007Z,2.40
2019-05-13T00:26:03.981Z,2.40
2019-05-13T00:27:04.087Z,2.20
2019-05-13T00:28:04.102Z,2.20
2019-05-13T00:29:04.152Z,2.20
2019-05-13T00:30:04.287Z,2.10
2019-05-13T00:31:03.516Z,2.20
2019-05-13T00:32:04.770Z,2.30
2019-05-13T00:33:03.787Z,2.20
2019-05-13T00:34:03.853Z,2.20
2019-05-13T00:35:03.955Z,2.20
2019-05-13T00:36:04.040Z,2.20
2019-05-13T00:37:11.230Z,2.40
2019-05-13T00:38:03.912Z,2.20
2019-05-13T00:39:03.925Z,2.40
2019-05-13T00:40:04.001Z,2.30
2019-05-13T00:41:03.706Z,2.40
2019-05-13T00:42:04.030Z,2.50
2019-05-13T00:43:03.924Z,2.40
2019-05-13T00:44:03.873Z,2.50
2019-05-13T00:45:04.067Z,2.20
2019-05-13T00:46:03.849Z,2.30
2019-05-13T00:47:04.493Z,2.10
2019-05-13T00:48:04.603Z,2.40
2019-05-13T00:49:04.810Z,2.20
2019-05-13T00:50:03.667Z,2.50
2019-05-13T00:51:03.842Z,2.40
2019-05-13T00:52:03.885Z,2.40
2019-05-13T00:53:04.438Z,2.40
2019-05-13T00:54:04.396Z,2.50
2019-05-13T00:55:04.283Z,2.50
2019-05-13T00:56:04.016Z,2.50
2019-05-13T00:57:04.199Z,2.40
2019-05-13T00:58:04.266Z,2.50
2019-05-13T00:59:03.695Z,2.30
2019-05-13T01:00:03.499Z,2.40
2019-05-13T01:01:03.624Z,2.40
2019-05-13T01:02:03.578Z,2.70
2019-05-13T01:03:04.159Z,2.20
2019-05-13T01:04:03.964Z,2.30
2019-05-13T01:05:04.331Z,2.60
2019-05-13T01:06:04.321Z,2.20
2019-05-13T01:07:04.384Z,2.20
2019-05-13T01:08:04.379Z,2.50
2019-05-13T01:09:04.116Z,2.40
2019-05-13T01:10:04.231Z,2.40
2019-05-13T01:11:04.231Z,2.50
2019-05-13T01:12:04.124Z,2.30
2019-05-13T01:13:04.582Z,2.30
2019-05-13T01:14:04.115Z,2.10
2019-05-13T01:15:04.026Z,2.20
2019-05-13T01:16:08.701Z,2.30
2019-05-13T01:17:03.910Z,2.20
2019-05-13T01:18:03.956Z,2.60
2019-05-13T01:19:04.044Z,2.30
2019-05-13T01:20:03.981Z,2.50
2019-05-13T01:21:04.178Z,2.40
2019-05-13T01:22:03.431Z,2.80
2019-05-13T01:23:03.682Z,2.40
2019-05-13T01:24:03.719Z,2.40
2019-05-13T01:25:03.915Z,2.60
2019-05-13T01:26:03.883Z,2.50
2019-05-13T01:27:03.805Z,2.60
2019-05-13T01:28:04.222Z,2.30
2019-05-13T01:29:03.977Z,2.60
2019-05-13T01:30:03.956Z,2.50
2019-05-13T01:31:03.961Z,2.60
2019-05-13T01:32:01.641Z,2.70
2019-05-13T01:33:01.509Z,2.70
2019-05-13T01:34:03.882Z,2.50
2019-05-13T01:35:01.451Z,2.60
2019-05-13T01:36:01.471Z,2.80
2019-05-13T01:37:01.403Z,2.90
2019-05-13T01:38:01.392Z,2.90
2019-05-13T01:39:01.342Z,2.50
2019-05-13T01:40:01.433Z,2.70
2019-05-13T01:41:01.292Z,2.50
2019-05-13T01:42:03.484Z,2.80
2019-05-13T01:43:03.381Z,2.30
2019-05-13T01:44:03.892Z,2.70
2019-05-13T01:45:01.200Z,2.70
2019-05-13T01:46:01.140Z,2.60
2019-05-13T01:47:01.143Z,2.40
2019-05-13T01:48:01.085Z,2.40
2019-05-13T01:49:01.152Z,2.70
2019-05-13T01:50:03.428Z,2.60
2019-05-13T01:51:03.560Z,2.80
2019-05-13T01:52:03.467Z,2.60
2019-05-13T01:53:00.984Z,2.60
2019-05-13T01:54:00.929Z,2.70
2019-05-13T01:55:00.992Z,2.80
2019-05-13T01:56:00.847Z,2.70
2019-05-13T01:57:00.901Z,2.60
2019-05-13T01:58:00.789Z,2.90
2019-05-13T01:59:00.810Z,2.70
2019-05-13T02:00:00.799Z,2.70
2019-05-13T02:01:00.724Z,3.00
2019-05-13T02:02:00.682Z,2.80
2019-05-13T02:03:00.740Z,2.80
2019-05-13T02:04:00.642Z,2.80
2019-05-13T02:05:00.649Z,2.80
2019-05-13T02:06:00.560Z,2.90
2019-05-13T02:07:00.540Z,2.90
2019-05-13T02:08:00.794Z,2.80
2019-05-13T02:09:00.573Z,2.90
2019-05-13T02:10:00.450Z,3.10
2019-05-13T02:11:00.503Z,3.10
2019-05-13T02:12:00.391Z,2.70
2019-05-13T02:13:00.398Z,3.20
2019-05-13T02:14:00.335Z,3.20
2019-05-13T02:15:00.411Z,2.90
2019-05-13T02:16:00.268Z,2.80
2019-05-13T02:17:00.317Z,2.90
2019-05-13T02:18:00.220Z,2.90
2019-05-13T02:19:00.239Z,3.10
2019-05-13T02:20:00.158Z,2.90
2019-05-13T02:21:00.156Z,3.30
2019-05-13T02:22:00.109Z,2.90
2019-05-13T02:23:00.087Z,2.90
2019-05-13T02:24:00.037Z,2.70
2019-05-13T02:25:00.078Z,3.00
2019-05-13T02:25:59.991Z,3.00
2019-05-13T02:26:59.988Z,2.90
2019-05-13T02:27:59.930Z,2.90
2019-05-13T02:28:59.998Z,3.10
2019-05-13T02:29:59.869Z,2.80
2019-05-13T02:30:59.908Z,3.10
2019-05-13T02:32:02.710Z,3.00
2019-05-13T02:33:02.940Z,2.90
2019-05-13T02:34:02.521Z,2.90
2019-05-13T02:35:02.714Z,3.00
2019-05-13T02:36:02.590Z,3.20
2019-05-13T02:37:02.844Z,2.90
2019-05-13T02:38:18.432Z,3.10
2019-05-13T02:39:02.210Z,2.90
2019-05-13T02:40:03.213Z,3.00
2019-05-13T02:41:02.595Z,2.90
2019-05-13T02:42:03.022Z,3.00
2019-05-13T02:43:02.706Z,2.90
2019-05-13T02:44:03.224Z,3.20
2019-05-13T02:45:03.407Z,3.10
2019-05-13T02:45:59.509Z,3.20
2019-05-13T02:47:02.957Z,2.70
2019-05-13T02:48:02.390Z,2.90
2019-05-13T02:48:59.318Z,3.10
2019-05-13T02:50:01.931Z,3.30
2019-05-13T02:50:59.261Z,2.70
2019-05-13T02:52:02.439Z,3.00
2019-05-13T02:53:02.105Z,3.00
2019-05-13T02:53:59.262Z,3.00
2019-05-13T02:54:59.156Z,2.90
2019-05-13T02:55:59.170Z,2.90
2019-05-13T02:56:59.092Z,2.90
2019-05-13T02:57:59.087Z,3.30
2019-05-13T02:58:59.029Z,3.10
2019-05-13T02:59:58.997Z,2.70
2019-05-13T03:00:58.982Z,3.20
2019-05-13T03:01:59.044Z,2.70
2019-05-13T03:02:58.908Z,3.00
2019-05-13T03:03:58.919Z,3.00
2019-05-13T03:04:58.979Z,3.10
2019-05-13T03:05:58.829Z,3.00
2019-05-13T03:06:58.837Z,3.10
2019-05-13T03:07:58.760Z,2.90
2019-05-13T03:08:58.861Z,3.20
2019-05-13T03:09:58.712Z,2.80
2019-05-13T03:10:58.771Z,2.90
2019-05-13T03:11:58.665Z,2.90
2019-05-13T03:12:58.677Z,2.90
2019-05-13T03:13:58.591Z,2.60
2019-05-13T03:14:58.724Z,2.90
2019-05-13T03:15:58.533Z,2.90
2019-05-13T03:16:58.613Z,3.00
2019-05-13T03:17:58.469Z,2.90
2019-05-13T03:18:58.507Z,3.10
2019-05-13T03:19:58.409Z,3.30
2019-05-13T03:20:58.379Z,3.10
2019-05-13T03:21:58.363Z,2.90
2019-05-13T03:22:58.439Z,2.90
2019-05-13T03:23:58.322Z,3.10
2019-05-13T03:24:58.360Z,3.00
2019-05-13T03:25:58.233Z,3.40
2019-05-13T03:26:58.258Z,3.00
2019-05-13T03:27:58.180Z,3.20
2019-05-13T03:28:58.179Z,3.30
2019-05-13T03:29:58.119Z,3.10
2019-05-13T03:30:58.190Z,2.90
2019-05-13T03:31:58.058Z,2.70
2019-05-13T03:33:02.287Z,2.90
2019-05-13T03:33:58.000Z,3.10
2019-05-13T03:34:58.009Z,3.20
2019-05-13T03:35:57.953Z,2.90
2019-05-13T03:36:58.246Z,2.80
2019-05-13T03:37:57.933Z,2.70
2019-05-13T03:39:05.532Z,3.10
2019-05-13T03:39:57.827Z,2.90
2019-05-13T03:40:57.862Z,2.80
2019-05-13T03:41:57.869Z,3.20
2019-05-13T03:42:57.730Z,3.10
2019-05-13T03:43:57.769Z,2.80
2019-05-13T03:44:57.679Z,3.00
2019-05-13T03:45:57.679Z,3.20
2019-05-13T03:46:57.616Z,2.90
2019-05-13T03:47:57.598Z,3.40
2019-05-13T03:48:57.598Z,2.80
2019-05-13T03:49:57.521Z,3.20
2019-05-13T03:50:57.508Z,3.00
2019-05-13T03:51:57.473Z,3.10
2019-05-13T03:52:57.430Z,3.20
2019-05-13T03:53:57.428Z,3.20
2019-05-13T03:54:57.380Z,3.20
2019-05-13T03:55:57.440Z,3.30
2019-05-13T03:56:57.319Z,3.30
2019-05-13T03:57:57.288Z,3.60
2019-05-13T03:58:57.258Z,3.70
2019-05-13T03:59:57.267Z,3.40
2019-05-13T04:00:57.210Z,3.80
2019-05-13T04:01:57.279Z,3.20
2019-05-13T04:02:57.146Z,3.40
2019-05-13T04:03:57.193Z,3.20
2019-05-13T04:04:59.298Z,3.40
2019-05-13T04:05:57.098Z,3.60
2019-05-13T04:06:57.039Z,3.30
2019-05-13T04:07:57.024Z,3.70
2019-05-13T04:09:17.317Z,3.50
2019-05-13T04:09:56.930Z,3.70
2019-05-13T04:10:56.937Z,3.50
2019-05-13T04:11:56.883Z,3.50
2019-05-13T04:12:56.860Z,3.40
2019-05-13T04:13:56.848Z,3.40
2019-05-13T04:14:56.780Z,3.60
2019-05-13T04:15:56.772Z,3.50
2019-05-13T04:16:56.730Z,3.70
2019-05-13T04:17:56.791Z,3.60
2019-05-13T04:18:56.663Z,3.50
2019-05-13T04:19:56.716Z,3.50
2019-05-13T04:20:56.602Z,3.70
2019-05-13T04:21:56.639Z,3.60
2019-05-13T04:22:56.538Z,3.20
2019-05-13T04:23:56.631Z,3.30
2019-05-13T04:24:56.478Z,3.50
2019-05-13T04:25:56.528Z,3.50
2019-05-13T04:26:56.418Z,3.90
2019-05-13T04:27:56.437Z,3.80
2019-05-13T04:28:56.376Z,3.90
2019-05-13T04:29:56.332Z,4.10
2019-05-13T04:30:56.300Z,3.90
2019-05-13T04:31:56.367Z,3.90
2019-05-13T04:32:56.242Z,3.80
2019-05-13T04:33:56.276Z,3.80
2019-05-13T04:34:56.178Z,3.80
2019-05-13T04:35:56.190Z,3.80
2019-05-13T04:36:56.118Z,3.70
2019-05-13T04:37:56.099Z,4.20
2019-05-13T04:38:56.058Z,4.30
2019-05-13T04:39:56.675Z,4.00
2019-05-13T04:40:56.004Z,4.20
2019-05-13T04:41:56.028Z,4.20
2019-05-13T04:42:55.941Z,4.30
2019-05-13T04:43:55.969Z,4.50
2019-05-13T04:44:55.882Z,4.40
2019-05-13T04:45:55.856Z,4.10
2019-05-13T04:46:55.870Z,4.20
2019-05-13T04:47:55.789Z,4.40
2019-05-13T04:48:55.873Z,4.00
2019-05-13T04:49:55.744Z,4.30
2019-05-13T04:50:55.702Z,4.00
2019-05-13T04:51:55.691Z,4.40
2019-05-13T04:52:55.696Z,4.40
2019-05-13T04:53:57.335Z,4.20
2019-05-13T04:54:55.608Z,4.60
2019-05-13T04:55:55.600Z,4.10
2019-05-13T04:56:55.619Z,4.10
2019-05-13T04:57:55.488Z,4.50
2019-05-13T04:58:55.538Z,4.40
2019-05-13T04:59:55.438Z,4.20
2019-05-13T05:01:02.343Z,4.40
2019-05-13T05:01:59.182Z,4.50
2019-05-13T05:02:55.658Z,4.60
2019-05-13T05:03:55.307Z,4.40
2019-05-13T05:04:55.373Z,4.40
2019-05-13T05:05:55.257Z,4.70
2019-05-13T05:06:55.228Z,4.50
2019-05-13T05:07:55.210Z,4.90
2019-05-13T05:08:55.205Z,4.90
2019-05-13T05:10:16.031Z,4.50
2019-05-13T05:10:55.208Z,5.00
2019-05-13T05:11:55.070Z,4.80
2019-05-13T05:12:55.117Z,4.60
2019-05-13T05:13:56.745Z,4.70
2019-05-13T05:14:55.039Z,4.20
2019-05-13T05:15:54.965Z,4.70
2019-05-13T05:16:54.954Z,4.60
2019-05-13T05:17:54.904Z,4.90
2019-05-13T05:18:54.957Z,4.60
2019-05-13T05:19:54.840Z,4.90
2019-05-13T05:20:54.887Z,4.80
2019-05-13T05:21:55.561Z,4.60
2019-05-13T05:22:54.751Z,4.80
2019-05-13T05:23:54.716Z,4.40
2019-05-13T05:24:54.797Z,4.80
2019-05-13T05:25:54.657Z,4.40
2019-05-13T05:26:54.725Z,4.50
2019-05-13T05:27:57.920Z,4.80
2019-05-13T05:28:54.568Z,4.70
2019-05-13T05:29:54.633Z,4.80
2019-05-13T05:30:54.517Z,4.50
2019-05-13T05:31:54.539Z,4.80
2019-05-13T05:32:54.450Z,5.20
2019-05-13T05:33:54.446Z,4.50
2019-05-13T05:34:54.389Z,5.00
2019-05-13T05:35:54.474Z,5.20
2019-05-13T05:36:54.336Z,4.90
2019-05-13T05:37:54.379Z,5.00
2019-05-13T05:38:54.279Z,5.10
2019-05-13T05:39:54.287Z,4.80
2019-05-13T05:40:54.228Z,5.30
2019-05-13T05:41:54.310Z,4.90
2019-05-13T05:42:54.157Z,5.00
2019-05-13T05:43:54.129Z,5.10
2019-05-13T05:44:54.098Z,5.00
2019-05-13T05:45:54.127Z,5.00
2019-05-13T05:46:54.041Z,5.00
2019-05-13T05:47:54.049Z,5.00
2019-05-13T05:48:54.048Z,5.00
2019-05-13T05:49:53.959Z,5.10
2019-05-13T05:50:53.968Z,5.00
2019-05-13T05:51:53.899Z,5.20
2019-05-13T05:52:53.967Z,5.10
2019-05-13T05:53:53.842Z,4.90
2019-05-13T05:54:53.808Z,5.00
2019-05-13T05:55:54.928Z,5.00
2019-05-13T05:56:53.749Z,5.40
2019-05-13T05:57:53.799Z,5.00
2019-05-13T05:58:53.687Z,5.00
2019-05-13T05:59:53.661Z,5.10
2019-05-13T06:00:53.718Z,4.80
2019-05-13T06:01:53.598Z,5.20
2019-05-13T06:02:53.631Z,5.10
2019-05-13T06:03:53.539Z,5.20
2019-05-13T06:04:53.520Z,4.80
2019-05-13T06:05:53.487Z,4.90
2019-05-13T06:06:53.556Z,5.30
2019-05-13T06:07:53.428Z,5.30
2019-05-13T06:08:53.469Z,5.00
2019-05-13T06:09:53.382Z,5.40
2019-05-13T06:10:53.909Z,5.60
2019-05-13T06:11:53.309Z,5.20
2019-05-13T06:12:53.401Z,5.60
2019-05-13T06:13:54.723Z,5.00
2019-05-13T06:14:53.309Z,5.50
2019-05-13T06:15:53.206Z,5.60
2019-05-13T06:16:53.171Z,5.60
2019-05-13T06:17:53.227Z,5.40
2019-05-13T06:18:53.129Z,5.60
2019-05-13T06:19:53.158Z,5.60
2019-05-13T06:20:53.149Z,5.20
2019-05-13T06:21:53.040Z,5.80
2019-05-13T06:22:53.067Z,5.40
2019-05-13T06:23:52.973Z,5.20
2019-05-13T06:24:52.968Z,5.50
2019-05-13T06:25:52.974Z,5.60
2019-05-13T06:26:53.012Z,5.00
2019-05-13T06:27:52.859Z,5.20
2019-05-13T06:28:52.898Z,5.40
2019-05-13T06:29:53.103Z,5.20
2019-05-13T06:30:52.811Z,5.40
2019-05-13T06:31:52.749Z,5.70
2019-05-13T06:32:52.818Z,5.40
2019-05-13T06:33:52.681Z,5.40
2019-05-13T06:34:52.758Z,5.00
2019-05-13T06:35:52.629Z,5.80
2019-05-13T06:36:52.601Z,5.50
2019-05-13T06:37:52.572Z,5.50
2019-05-13T06:38:52.657Z,5.60
2019-05-13T06:39:52.523Z,5.40
2019-05-13T06:41:03.363Z,5.40
2019-05-13T06:41:52.479Z,5.80
2019-05-13T06:42:52.427Z,5.60
2019-05-13T06:43:52.575Z,5.90
2019-05-13T06:44:52.372Z,5.90
2019-05-13T06:45:52.397Z,5.90
2019-05-13T06:46:52.330Z,5.80
2019-05-13T06:47:52.343Z,6.00
2019-05-13T06:48:52.263Z,6.30
2019-05-13T06:49:52.333Z,6.30
2019-05-13T06:50:52.290Z,5.90
2019-05-13T06:51:52.886Z,6.00
2019-05-13T06:52:52.187Z,6.00
2019-05-13T06:53:52.152Z,6.10
2019-05-13T06:54:52.226Z,5.70
2019-05-13T06:55:53.091Z,5.80
2019-05-13T06:56:52.028Z,5.70
2019-05-13T06:57:52.009Z,5.60
2019-05-13T06:58:52.200Z,6.00
2019-05-13T06:59:52.531Z,5.80
2019-05-13T07:00:52.023Z,6.10
2019-05-13T07:01:51.912Z,5.90
2019-05-13T07:02:51.973Z,6.30
2019-05-13T07:03:51.989Z,5.50
2019-05-13T07:04:51.933Z,6.30
2019-05-13T07:05:52.474Z,5.90
2019-05-13T07:07:07.686Z,6.20
2019-05-13T07:07:51.841Z,6.00
2019-05-13T07:08:52.250Z,6.00
2019-05-13T07:09:51.949Z,6.50
2019-05-13T07:10:51.732Z,5.90
2019-05-13T07:11:51.957Z,6.30
2019-05-13T07:12:52.035Z,6.30
2019-05-13T07:13:51.806Z,6.10
2019-05-13T07:14:51.974Z,6.60
2019-05-13T07:15:52.245Z,5.90
2019-05-13T07:16:52.426Z,6.90
2019-05-13T07:17:52.091Z,6.80
2019-05-13T07:18:52.370Z,7.00
2019-05-13T07:19:51.805Z,6.90
2019-05-13T07:20:53.007Z,6.30
2019-05-13T07:21:52.090Z,6.60
2019-05-13T07:22:53.177Z,7.00
2019-05-13T07:23:54.776Z,6.40
2019-05-13T07:24:51.938Z,6.80
2019-05-13T07:25:52.475Z,6.30
2019-05-13T07:26:52.328Z,6.00
2019-05-13T07:27:51.572Z,6.30
2019-05-13T07:28:52.405Z,6.20
2019-05-13T07:29:53.611Z,5.80
2019-05-13T07:30:51.740Z,5.70
2019-05-13T07:31:52.219Z,5.80
2019-05-13T07:32:52.390Z,5.70
2019-05-13T07:33:51.731Z,5.70
2019-05-13T07:34:53.145Z,5.60
2019-05-13T07:35:57.314Z,5.60
2019-05-13T07:36:51.362Z,6.00
2019-05-13T07:37:51.740Z,6.10
2019-05-13T07:38:52.043Z,5.40
2019-05-13T07:39:53.003Z,5.70
2019-05-13T07:40:52.168Z,5.40
2019-05-13T07:41:52.033Z,5.20
2019-05-13T07:42:52.278Z,4.90
2019-05-13T07:43:51.744Z,4.70
2019-05-13T07:44:52.184Z,4.80
2019-05-13T07:45:51.374Z,5.20
2019-05-13T07:46:52.431Z,4.60
2019-05-13T07:47:52.038Z,4.90
2019-05-13T07:48:52.095Z,5.10
2019-05-13T07:49:51.557Z,4.90
2019-05-13T07:50:59.589Z,4.70
2019-05-13T07:51:52.093Z,4.60
2019-05-13T07:52:51.496Z,4.20
2019-05-13T07:53:51.782Z,4.20
2019-05-13T07:54:52.075Z,4.30
2019-05-13T07:55:52.501Z,5.10
2019-05-13T07:56:52.327Z,4.40
2019-05-13T07:57:51.487Z,4.80
2019-05-13T07:58:52.364Z,4.80
2019-05-13T07:59:52.425Z,4.50
2019-05-13T08:00:51.965Z,4.80
2019-05-13T08:01:52.175Z,4.40
2019-05-13T08:02:52.281Z,4.40
2019-05-13T08:03:51.574Z,4.90
2019-05-13T08:04:52.874Z,4.30
2019-05-13T08:05:51.310Z,4.70
2019-05-13T08:06:52.404Z,5.00
2019-05-13T08:07:51.534Z,5.40
2019-05-13T08:08:52.281Z,5.50
2019-05-13T08:09:51.825Z,5.80
2019-05-13T08:10:51.956Z,5.40
2019-05-13T08:12:04.392Z,5.30
2019-05-13T08:12:51.670Z,5.90
2019-05-13T08:13:51.745Z,4.60
2019-05-13T08:14:52.186Z,5.20
2019-05-13T08:15:54.399Z,4.90
2019-05-13T08:16:51.802Z,5.20
2019-05-13T08:17:52.516Z,5.40
2019-05-13T08:18:52.147Z,5.60
2019-05-13T08:19:52.057Z,4.70
2019-05-13T08:20:52.276Z,4.10
2019-05-13T08:21:51.394Z,4.80
2019-05-13T08:22:51.966Z,4.50
2019-05-13T08:23:52.231Z,4.60
2019-05-13T08:24:52.038Z,4.40
2019-05-13T08:25:51.476Z,4.30
2019-05-13T08:26:50.710Z,4.70
2019-05-13T08:27:51.477Z,4.90
2019-05-13T08:29:00.085Z,4.80
2019-05-13T08:29:51.982Z,4.50
2019-05-13T08:30:51.664Z,4.80
2019-05-13T08:31:51.669Z,5.10
2019-05-13T08:32:49.448Z,4.80
2019-05-13T08:33:51.780Z,4.50
2019-05-13T08:34:54.314Z,4.50
2019-05-13T08:35:54.009Z,4.40
2019-05-13T08:36:51.429Z,4.30
2019-05-13T08:37:51.848Z,4.60
2019-05-13T08:38:51.914Z,4.10
2019-05-13T08:39:52.009Z,4.60
2019-05-13T08:40:51.199Z,4.30
2019-05-13T08:41:51.395Z,4.40
2019-05-13T08:42:49.191Z,4.60
2019-05-13T08:43:49.247Z,4.10
2019-05-13T08:44:52.024Z,4.10
2019-05-13T08:45:51.702Z,4.50
2019-05-13T08:46:49.088Z,4.00
2019-05-13T08:47:51.211Z,5.70
2019-05-13T08:48:51.604Z,4.50
2019-05-13T08:49:49.078Z,4.10
2019-05-13T08:50:48.979Z,4.10
2019-05-13T08:51:48.999Z,4.00
2019-05-13T08:52:51.107Z,3.80
2019-05-13T08:53:48.909Z,4.30
2019-05-13T08:54:48.911Z,3.80
2019-05-13T08:55:51.567Z,3.70
2019-05-13T08:56:48.927Z,3.20
2019-05-13T08:57:51.181Z,3.50
2019-05-13T08:58:48.789Z,3.40
2019-05-13T08:59:51.298Z,3.50
2019-05-13T09:00:48.767Z,3.60
2019-05-13T09:01:48.709Z,3.90
2019-05-13T09:02:48.779Z,3.90
2019-05-13T09:03:48.673Z,3.90
2019-05-13T09:04:48.679Z,3.40
2019-05-13T09:05:48.611Z,3.30
2019-05-13T09:06:48.694Z,3.20
2019-05-13T09:07:48.549Z,3.20
2019-05-13T09:08:48.601Z,3.00
2019-05-13T09:09:48.501Z,3.20
2019-05-13T09:10:48.519Z,2.80
2019-05-13T09:11:48.456Z,2.90
2019-05-13T09:12:48.529Z,3.00
2019-05-13T09:13:48.398Z,3.20
2019-05-13T09:14:48.370Z,3.20
2019-05-13T09:15:48.449Z,3.20
2019-05-13T09:16:48.331Z,3.30
2019-05-13T09:17:48.369Z,3.10
2019-05-13T09:18:48.279Z,3.20
2019-05-13T09:19:48.261Z,3.10
2019-05-13T09:20:48.238Z,2.90
2019-05-13T09:21:48.292Z,2.90
2019-05-13T09:22:48.179Z,2.80
2019-05-13T09:23:48.197Z,2.40
2019-05-13T09:24:48.129Z,2.90
2019-05-13T09:25:48.209Z,2.80
2019-05-13T09:26:48.072Z,2.90
2019-05-13T09:27:48.129Z,2.90
2019-05-13T09:28:48.038Z,3.00
2019-05-13T09:29:48.039Z,2.90
2019-05-13T09:30:47.989Z,3.10
2019-05-13T09:31:48.061Z,2.80
2019-05-13T09:32:47.949Z,2.80
2019-05-13T09:33:47.963Z,2.70
2019-05-13T09:34:47.901Z,2.80
2019-05-13T09:35:50.135Z,2.70
2019-05-13T09:36:47.853Z,2.80
2019-05-13T09:37:47.892Z,2.60
2019-05-13T09:38:47.798Z,2.60
2019-05-13T09:39:47.798Z,2.50
2019-05-13T09:40:47.747Z,2.50
2019-05-13T09:41:47.818Z,2.40
2019-05-13T09:42:51.866Z,2.50
2019-05-13T09:43:47.729Z,2.80
2019-05-13T09:44:47.658Z,2.80
2019-05-13T09:45:47.738Z,2.50
2019-05-13T09:46:47.618Z,2.30
2019-05-13T09:47:47.647Z,2.10
2019-05-13T09:48:47.557Z,2.70
2019-05-13T09:49:47.568Z,2.30
2019-05-13T09:50:47.509Z,2.50
2019-05-13T09:51:47.496Z,2.50
2019-05-13T09:52:47.500Z,2.70
2019-05-13T09:53:47.490Z,2.40
2019-05-13T09:54:47.442Z,2.20
2019-05-13T09:55:47.535Z,2.30
2019-05-13T09:56:47.412Z,2.40
2019-05-13T09:57:47.371Z,2.10
2019-05-13T09:58:47.420Z,2.30
2019-05-13T09:59:47.309Z,2.30
2019-05-13T10:00:47.509Z,3.30
2019-05-13T10:01:47.261Z,3.60
2019-05-13T10:02:47.348Z,2.40
2019-05-13T10:03:54.786Z,2.20
2019-05-13T10:04:47.199Z,2.20
2019-05-13T10:05:47.270Z,2.30
2019-05-13T10:06:47.148Z,2.90
2019-05-13T10:07:47.130Z,2.50
2019-05-13T10:08:47.209Z,2.70
2019-05-13T10:09:48.343Z,2.40
2019-05-13T10:10:47.101Z,2.10
2019-05-13T10:11:47.039Z,2.20
2019-05-13T10:13:07.064Z,2.40
2019-05-13T10:13:46.988Z,2.80
2019-05-13T10:14:47.029Z,2.40
2019-05-13T10:15:48.864Z,2.40
2019-05-13T10:16:47.039Z,2.50
2019-05-13T10:17:46.910Z,2.60
2019-05-13T10:18:46.948Z,2.40
2019-05-13T10:19:46.857Z,2.40
2019-05-13T10:20:46.864Z,2.70
2019-05-13T10:21:46.817Z,2.30
2019-05-13T10:22:46.881Z,2.40
2019-05-13T10:23:46.767Z,2.90
2019-05-13T10:24:46.787Z,2.60
2019-05-13T10:25:46.728Z,3.10
2019-05-13T10:26:46.798Z,2.90
2019-05-13T10:27:46.691Z,2.90
2019-05-13T10:28:46.663Z,2.40
2019-05-13T10:29:46.647Z,2.50
2019-05-13T10:30:46.766Z,2.80
2019-05-13T10:31:46.598Z,2.70
2019-05-13T10:32:46.649Z,2.80
2019-05-13T10:33:46.649Z,2.30
2019-05-13T10:34:46.535Z,3.00
2019-05-13T10:35:46.559Z,2.40
2019-05-13T10:36:46.488Z,2.30
2019-05-13T10:37:46.582Z,2.30
2019-05-13T10:38:46.450Z,2.40
2019-05-13T10:39:46.437Z,2.40
2019-05-13T10:40:46.491Z,2.40
2019-05-13T10:41:46.387Z,2.60
2019-05-13T10:42:46.419Z,2.40
2019-05-13T10:43:46.359Z,2.60
2019-05-13T10:44:46.328Z,2.40
2019-05-13T10:45:46.319Z,2.40
2019-05-13T10:46:46.278Z,2.50
2019-05-13T10:47:47.359Z,2.70
2019-05-13T10:48:46.238Z,2.60
2019-05-13T10:49:46.230Z,2.50
2019-05-13T10:50:46.257Z,2.30
2019-05-13T10:51:46.189Z,2.60
2019-05-13T10:52:46.274Z,2.60
2019-05-13T10:53:46.141Z,2.40
2019-05-13T10:54:46.121Z,2.60
2019-05-13T10:55:46.103Z,2.40
2019-05-13T10:56:46.088Z,2.60
2019-05-13T10:57:46.060Z,2.60
2019-05-13T10:58:47.128Z,2.30
2019-05-13T10:59:46.022Z,2.40
2019-05-13T11:00:46.003Z,2.30
2019-05-13T11:01:46.051Z,2.50
2019-05-13T11:02:45.968Z,2.50
2019-05-13T11:03:46.052Z,2.40
2019-05-13T11:04:45.930Z,2.00
2019-05-13T11:05:45.909Z,2.20
2019-05-13T11:06:45.885Z,2.20
2019-05-13T11:07:45.975Z,2.20
2019-05-13T11:08:45.827Z,2.10
2019-05-13T11:09:45.890Z,2.10
2019-05-13T11:10:45.913Z,2.10
2019-05-13T11:11:45.769Z,2.00
2019-05-13T11:12:45.808Z,2.30
2019-05-13T11:13:55.155Z,2.10
2019-05-13T11:14:46.664Z,2.00
2019-05-13T11:15:45.981Z,2.00
2019-05-13T11:16:45.717Z,2.30
2019-05-13T11:17:45.650Z,2.50
2019-05-13T11:18:45.742Z,2.30
2019-05-13T11:19:45.610Z,2.20
2019-05-13T11:20:45.655Z,2.00
2019-05-13T11:21:50.476Z,2.20
2019-05-13T11:22:45.560Z,2.00
2019-05-13T11:23:45.569Z,2.10
2019-05-13T11:24:45.518Z,2.00
2019-05-13T11:25:45.582Z,2.10
2019-05-13T11:26:45.493Z,2.00
2019-05-13T11:27:45.460Z,2.10
2019-05-13T11:28:45.500Z,2.10
2019-05-13T11:29:45.417Z,2.00
2019-05-13T11:30:45.413Z,2.00
2019-05-13T11:31:45.379Z,1.90
2019-05-13T11:32:45.430Z,2.20
2019-05-13T11:33:45.339Z,1.90
2019-05-13T11:34:45.353Z,1.70
2019-05-13T11:35:45.312Z,2.10
2019-05-13T11:36:45.351Z,1.90
2019-05-13T11:37:45.358Z,1.70
2019-05-13T11:38:45.239Z,1.90
2019-05-13T11:39:45.268Z,1.80
2019-05-13T11:40:45.209Z,2.10
2019-05-13T11:41:45.288Z,2.00
2019-05-13T11:42:45.189Z,1.80
2019-05-13T11:43:45.150Z,1.80
2019-05-13T11:44:45.212Z,1.70
2019-05-13T11:45:45.112Z,1.70
2019-05-13T11:46:45.129Z,1.60
2019-05-13T11:47:45.070Z,1.50
2019-05-13T11:48:45.132Z,1.80
2019-05-13T11:49:45.040Z,1.80
2019-05-13T11:50:50.114Z,1.80
2019-05-13T11:51:45.002Z,1.90
2019-05-13T11:52:45.066Z,2.00
2019-05-13T11:53:44.962Z,1.80
2019-05-13T11:54:44.971Z,1.90
2019-05-13T11:55:44.919Z,1.90
2019-05-13T11:56:49.778Z,2.10
2019-05-13T11:57:44.890Z,1.60
2019-05-13T11:58:44.859Z,1.70
2019-05-13T11:59:44.857Z,1.70
2019-05-13T12:00:44.909Z,1.60
2019-05-13T12:01:44.807Z,1.80
2019-05-13T12:02:51.031Z,1.60
2019-05-13T12:03:44.851Z,1.70
2019-05-13T12:04:44.750Z,1.60
2019-05-13T12:05:44.871Z,1.80
2019-05-13T12:07:44.751Z,1.60
2019-05-13T12:08:51.053Z,1.70
2019-05-13T12:09:44.656Z,1.80
2019-05-13T12:10:44.670Z,1.90
2019-05-13T12:11:44.619Z,1.70
2019-05-13T12:12:44.689Z,1.70
2019-05-13T12:13:44.587Z,1.70
2019-05-13T12:15:48.898Z,1.80
2019-05-13T12:16:44.528Z,1.70
2019-05-13T12:17:44.519Z,1.80
2019-05-13T12:18:44.529Z,1.70
2019-05-13T12:19:44.538Z,2.00
2019-05-13T12:20:44.457Z,1.60
2019-05-13T12:21:46.682Z,2.10
2019-05-13T12:22:44.418Z,1.90
2019-05-13T12:23:44.458Z,1.90
2019-05-13T12:24:44.391Z,1.90
2019-05-13T12:25:44.403Z,1.90
2019-05-13T12:26:44.340Z,1.80
2019-05-13T12:27:44.388Z,2.00
2019-05-13T12:28:44.296Z,1.70
2019-05-13T12:29:44.297Z,2.00
2019-05-13T12:30:44.258Z,1.80
2019-05-13T12:31:44.305Z,1.90
2019-05-13T12:32:44.227Z,2.00
2019-05-13T12:33:44.262Z,2.00
2019-05-13T12:34:45.734Z,2.10
2019-05-13T12:35:44.169Z,1.90
2019-05-13T12:36:44.261Z,1.70
2019-05-13T12:37:44.131Z,1.70
2019-05-13T12:38:44.545Z,1.90
2019-05-13T12:39:44.270Z,2.00
2019-05-13T12:40:44.079Z,1.80
2019-05-13T12:41:44.106Z,1.70
2019-05-13T12:42:47.114Z,2.00
2019-05-13T12:43:44.018Z,1.50
2019-05-13T12:45:00.480Z,1.70
2019-05-13T12:45:43.984Z,1.60
2019-05-13T12:47:44.018Z,1.70
2019-05-13T12:48:43.927Z,1.80
2019-05-13T12:49:44.272Z,1.60
2019-05-13T12:50:43.898Z,1.60
2019-05-13T12:51:44.224Z,1.80
2019-05-13T12:52:44.100Z,1.90
2019-05-13T12:53:43.848Z,1.80
2019-05-13T12:54:44.771Z,1.80
2019-05-13T12:55:43.866Z,1.90
2019-05-13T12:56:43.868Z,2.00
2019-05-13T12:57:43.782Z,1.60
2019-05-13T12:58:43.788Z,1.90
2019-05-13T12:59:43.748Z,1.90
2019-05-13T13:00:43.798Z,1.70
2019-05-13T13:01:43.686Z,1.60
2019-05-13T13:02:50.360Z,1.60
2019-05-13T13:03:43.668Z,2.00
2019-05-13T13:05:07.967Z,2.10
2019-05-13T13:05:43.631Z,2.00
2019-05-13T13:06:45.294Z,1.90
2019-05-13T13:07:43.581Z,1.90
2019-05-13T13:08:48.924Z,2.00
2019-05-13T13:09:43.549Z,1.90
2019-05-13T13:10:43.556Z,1.80
2019-05-13T13:11:44.053Z,2.00
2019-05-13T13:12:43.502Z,1.90
2019-05-13T13:13:58.238Z,1.90
2019-05-13T13:14:44.624Z,1.90
2019-05-13T13:15:48.490Z,2.00
2019-05-13T13:16:43.428Z,1.70
2019-05-13T13:17:43.408Z,1.80
2019-05-13T13:18:43.767Z,2.00
2019-05-13T13:19:43.418Z,1.80
2019-05-13T13:20:43.349Z,1.80